Wetterdaten: Woche 02.04.18 - 08.04.18 (KW14)
Datum Zeit Temp. A. Feuchte A. Luftdruck Regen Wind Richtung Taupunkt Windchill Windben
02.04.2018 00:00 6,8 C 72 % 1008,2 hPa 0,0 l/m 15,4 km/h N 2,0 C 1,0 C 37,8 km/h
02.04.2018 01:00 6,6 C 72 % 1009,2 hPa 0,0 l/m 11,7 km/h N 1,9 C 2,8 C 30,6 km/h
02.04.2018 02:00 6,5 C 73 % 1009,8 hPa 0,0 l/m 10,1 km/h N 2,0 C 3,6 C 28,6 km/h
02.04.2018 03:00 6,4 C 75 % 1010,5 hPa 1,0 l/m 11,4 km/h N 2,3 C 2,8 C 30,2 km/h
02.04.2018 04:00 5,0 C 82 % 1011,0 hPa 1,8 l/m 11,4 km/h N 2,1 C 1,2 C 28,9 km/h
02.04.2018 05:00 5,5 C 81 % 1010,9 hPa 0,0 l/m 9,9 km/h N 2,4 C 2,7 C 26,1 km/h
02.04.2018 06:00 5,9 C 77 % 1011,5 hPa 0,0 l/m 9,9 km/h N 2,1 C 3,2 C 28,6 km/h
02.04.2018 07:00 6,3 C 75 % 1012,4 hPa 0,0 l/m 7,1 km/h N 2,2 C 5,5 C 22,9 km/h
02.04.2018 08:00 7,4 C 71 % 1012,9 hPa 0,0 l/m 7,9 km/h N 2,5 C 6,2 C 25,8 km/h
02.04.2018 09:00 8,7 C 67 % 1013,5 hPa 0,0 l/m 6,9 km/h N 2,9 C 7,9 C 24,5 km/h
02.04.2018 10:00 9,7 C 63 % 1014,0 hPa 0,0 l/m 7,8 km/h N 2,9 C 8,5 C 25,7 km/h
02.04.2018 11:00 11,0 C 56 % 1013,8 hPa 0,0 l/m 11,4 km/h N 2,5 C 8,0 C 29,4 km/h
02.04.2018 12:00 12,0 C 51 % 1013,7 hPa 0,0 l/m 9,1 km/h N 2,1 C 10,3 C 28,2 km/h
02.04.2018 13:00 12,5 C 48 % 1013,5 hPa 0,0 l/m 7,9 km/h N 1,8 C 11,5 C 22,9 km/h
02.04.2018 14:00 12,9 C 47 % 1012,8 hPa 0,0 l/m 8,7 km/h N 1,8 C 11,6 C 21,3 km/h
02.04.2018 15:00 13,7 C 46 % 1012,0 hPa 0,0 l/m 5,6 km/h N 2,2 C 13,4 C 14,5 km/h
02.04.2018 16:00 14,8 C 41 % 1011,6 hPa 0,0 l/m 2,2 km/h N 1,8 C 14,8 C 12,5 km/h
02.04.2018 17:00 14,8 C 43 % 1011,2 hPa 0,0 l/m 0,2 km/h N 2,2 C 14,8 C 5,6 km/h
02.04.2018 18:00 13,9 C 44 % 1011,1 hPa 0,0 l/m 0,4 km/h N 1,8 C 13,9 C 4,8 km/h
02.04.2018 19:00 12,4 C 47 % 1011,0 hPa 0,0 l/m 0,0 km/h N 1,5 C 12,4 C 0,8 km/h
02.04.2018 20:00 9,8 C 54 % 1011,0 hPa 0,0 l/m 0,0 km/h N 0,9 C 9,8 C 0,0 km/h
02.04.2018 21:00 6,9 C 65 % 1011,1 hPa 0,0 l/m 0,0 km/h N 0,7 C 6,9 C 0,0 km/h
02.04.2018 22:00 5,4 C 72 % 1010,8 hPa 0,0 l/m 0,0 km/h N 0,8 C 5,4 C 0,0 km/h
02.04.2018 23:00 4,6 C 77 % 1010,3 hPa 0,0 l/m 0,0 km/h N 0,9 C 4,6 C 0,0 km/h
03.04.2018 00:00 4,2 C 80 % 1010,0 hPa 0,0 l/m 0,0 km/h N 0,9 C 4,2 C 0,0 km/h
03.04.2018 01:00 4,1 C 81 % 1009,5 hPa 0,0 l/m 0,0 km/h N 1,2 C 4,1 C 0,0 km/h
03.04.2018 02:00 3,3 C 81 % 1009,2 hPa 0,0 l/m 0,0 km/h N 0,4 C 3,3 C 0,0 km/h
03.04.2018 03:00 3,4 C 82 % 1008,7 hPa 0,0 l/m 0,0 km/h N 0,7 C 3,4 C 0,0 km/h
03.04.2018 04:00 3,5 C 83 % 1008,5 hPa 0,0 l/m 0,0 km/h N 0,9 C 3,5 C 0,0 km/h
03.04.2018 05:00 2,8 C 83 % 1008,4 hPa 0,0 l/m 0,0 km/h N 0,2 C 2,8 C 0,0 km/h
03.04.2018 06:00 2,4 C 83 % 1008,7 hPa 0,0 l/m 0,0 km/h N -0,2 C 2,4 C 0,0 km/h
03.04.2018 07:00 2,3 C 83 % 1009,3 hPa 0,0 l/m 0,0 km/h N -0,3 C 2,3 C 0,0 km/h
03.04.2018 08:00 4,5 C 83 % 1010,2 hPa 0,0 l/m 0,2 km/h N 1,8 C 4,5 C 3,6 km/h
03.04.2018 09:00 7,5 C 76 % 1010,7 hPa 0,0 l/m 0,3 km/h N 3,6 C 7,5 C 4,8 km/h
03.04.2018 10:00 9,4 C 69 % 1011,3 hPa 0,0 l/m 0,3 km/h N 4,0 C 9,4 C 4,4 km/h
03.04.2018 11:00 12,0 C 64 % 1011,5 hPa 0,0 l/m 0,0 km/h N 5,3 C 12,0 C 2,8 km/h
03.04.2018 12:00 14,1 C 60 % 1011,4 hPa 0,0 l/m 0,3 km/h N 6,4 C 14,1 C 4,8 km/h
03.04.2018 13:00 15,9 C 57 % 1010,9 hPa 0,0 l/m 0,4 km/h N 7,5 C 15,9 C 7,2 km/h
03.04.2018 14:00 17,6 C 51 % 1010,3 hPa 0,0 l/m 1,0 km/h N 7,3 C 17,6 C 7,6 km/h
03.04.2018 15:00 19,0 C 47 % 1009,4 hPa 0,0 l/m 0,4 km/h N 7,3 C 19,0 C 4,8 km/h
03.04.2018 16:00 19,5 C 45 % 1008,8 hPa 0,0 l/m 0,2 km/h N 7,2 C 19,5 C 5,2 km/h
03.04.2018 17:00 19,6 C 43 % 1008,4 hPa 0,0 l/m 0,3 km/h N 6,6 C 19,6 C 5,6 km/h
03.04.2018 18:00 19,3 C 45 % 1007,6 hPa 0,0 l/m 0,2 km/h N 6,9 C 19,3 C 3,6 km/h
03.04.2018 19:00 17,5 C 53 % 1007,2 hPa 0,0 l/m 0,0 km/h N 7,8 C 17,5 C 1,2 km/h
03.04.2018 20:00 14,9 C 60 % 1007,5 hPa 0,0 l/m 0,0 km/h N 7,1 C 14,9 C 0,4 km/h
03.04.2018 21:00 12,3 C 66 % 1007,6 hPa 0,0 l/m 0,0 km/h N 6,1 C 12,3 C 0,4 km/h
03.04.2018 22:00 10,3 C 72 % 1007,7 hPa 0,0 l/m 0,0 km/h N 5,3 C 10,3 C 0,0 km/h
03.04.2018 23:00 8,5 C 76 % 1007,6 hPa 0,0 l/m 0,0 km/h N 4,5 C 8,5 C 0,0 km/h
04.04.2018 00:00 7,5 C 80 % 1007,7 hPa 0,0 l/m 0,0 km/h N 4,2 C 7,5 C 0,0 km/h
04.04.2018 01:00 7,3 C 82 % 1007,6 hPa 0,0 l/m 0,1 km/h N 4,4 C 7,3 C 1,6 km/h
04.04.2018 02:00 7,0 C 81 % 1007,4 hPa 0,0 l/m 0,0 km/h N 4,0 C 7,0 C 0,0 km/h
04.04.2018 03:00 7,0 C 82 % 1007,3 hPa 0,0 l/m 0,0 km/h N 4,1 C 7,0 C 0,0 km/h
04.04.2018 04:00 7,2 C 83 % 1007,1 hPa 0,0 l/m 0,0 km/h N 4,6 C 7,2 C 0,4 km/h
04.04.2018 05:00 7,4 C 83 % 1007,2 hPa 0,0 l/m 0,0 km/h N 4,7 C 7,4 C 0,4 km/h
04.04.2018 06:00 7,6 C 83 % 1007,3 hPa 0,0 l/m 0,0 km/h N 4,8 C 7,6 C 0,8 km/h
04.04.2018 07:00 8,0 C 82 % 1007,5 hPa 0,0 l/m 0,0 km/h N 5,1 C 8,0 C 1,6 km/h
04.04.2018 08:00 9,1 C 80 % 1007,7 hPa 0,0 l/m 0,2 km/h N 5,8 C 9,1 C 4,0 km/h
04.04.2018 09:00 10,0 C 76 % 1007,5 hPa 0,0 l/m 2,3 km/h N 5,9 C 10,0 C 8,0 km/h
04.04.2018 10:00 11,3 C 71 % 1007,5 hPa 0,0 l/m 2,2 km/h N 6,3 C 11,3 C 8,0 km/h
04.04.2018 11:00 12,9 C 66 % 1007,4 hPa 0,0 l/m 1,4 km/h N 6,7 C 12,9 C 8,9 km/h
04.04.2018 12:00 14,1 C 63 % 1007,0 hPa 0,0 l/m 0,4 km/h N 7,1 C 14,1 C 6,0 km/h
04.04.2018 13:00 15,6 C 59 % 1006,7 hPa 0,0 l/m 0,7 km/h N 7,7 C 15,6 C 5,2 km/h
04.04.2018 14:00 17,2 C 57 % 1006,1 hPa 0,0 l/m 0,0 km/h N 8,5 C 17,2 C 1,6 km/h
04.04.2018 15:00 18,4 C 55 % 1005,6 hPa 0,0 l/m 0,1 km/h N 9,0 C 18,4 C 4,0 km/h
04.04.2018 16:00 19,0 C 53 % 1005,0 hPa 0,0 l/m 0,2 km/h N 9,2 C 19,0 C 4,0 km/h
04.04.2018 17:00 19,4 C 54 % 1004,4 hPa 0,0 l/m 0,1 km/h N 9,9 C 19,4 C 2,8 km/h
04.04.2018 18:00 19,0 C 52 % 1004,1 hPa 0,0 l/m 0,0 km/h N 8,7 C 19,0 C 1,6 km/h
04.04.2018 19:00 17,8 C 53 % 1003,8 hPa 0,0 l/m 0,0 km/h N 8,0 C 17,8 C 2,0 km/h
04.04.2018 20:00 15,7 C 58 % 1004,2 hPa 0,0 l/m 0,0 km/h N 7,5 C 15,7 C 0,4 km/h
04.04.2018 21:00 13,1 C 66 % 1004,5 hPa 0,0 l/m 0,0 km/h N 6,8 C 13,1 C 0,0 km/h
04.04.2018 22:00 11,1 C 73 % 1004,7 hPa 0,0 l/m 0,0 km/h N 6,5 C 11,1 C 0,0 km/h
04.04.2018 23:00 10,0 C 78 % 1004,8 hPa 0,0 l/m 0,0 km/h N 6,3 C 10,0 C 0,0 km/h
05.04.2018 00:00 10,4 C 79 % 1005,8 hPa 0,0 l/m 1,3 km/h N 6,8 C 10,4 C 11,3 km/h
05.04.2018 01:00 14,9 C 63 % 1005,7 hPa 0,0 l/m 5,6 km/h N 7,8 C 14,9 C 23,3 km/h
05.04.2018 02:00 15,2 C 58 % 1006,5 hPa 0,0 l/m 2,6 km/h N 7,0 C 15,2 C 13,3 km/h
05.04.2018 03:00 14,4 C 58 % 1006,7 hPa 0,0 l/m 1,5 km/h N 6,4 C 14,4 C 7,3 km/h
05.04.2018 04:00 12,6 C 63 % 1007,2 hPa 0,0 l/m 1,5 km/h N 5,8 C 12,6 C 5,2 km/h
05.04.2018 05:00 13,4 C 60 % 1008,0 hPa 0,0 l/m 2,6 km/h N 5,8 C 13,4 C 10,9 km/h
05.04.2018 06:00 12,8 C 61 % 1008,7 hPa 0,0 l/m 1,3 km/h N 5,5 C 12,8 C 6,8 km/h
05.04.2018 07:00 13,2 C 60 % 1009,3 hPa 0,0 l/m 2,2 km/h N 5,5 C 13,2 C 9,2 km/h
05.04.2018 08:00 14,6 C 55 % 1009,9 hPa 0,0 l/m 4,6 km/h N 5,6 C 14,3 C 17,7 km/h
05.04.2018 09:00 15,6 C 52 % 1010,3 hPa 0,0 l/m 8,6 km/h N 5,6 C 14,4 C 22,9 km/h
05.04.2018 10:00 15,1 C 54 % 1010,8 hPa 0,0 l/m 5,8 km/h N 5,8 C 14,8 C 19,3 km/h
05.04.2018 11:00 14,8 C 56 % 1011,3 hPa 0,0 l/m 4,1 km/h N 6,1 C 14,8 C 14,9 km/h
05.04.2018 12:00 14,5 C 56 % 1011,4 hPa 0,0 l/m 6,1 km/h N 5,8 C 14,1 C 17,3 km/h
05.04.2018 13:00 14,0 C 59 % 1011,3 hPa 0,0 l/m 6,0 km/h N 6,0 C 13,8 C 20,9 km/h
05.04.2018 14:00 13,8 C 60 % 1011,4 hPa 0,0 l/m 6,3 km/h N 6,0 C 13,6 C 21,3 km/h
05.04.2018 15:00 13,5 C 60 % 1011,5 hPa 0,0 l/m 6,8 km/h N 5,9 C 13,3 C 20,1 km/h
05.04.2018 16:00 13,4 C 62 % 1011,8 hPa 0,0 l/m 4,7 km/h N 6,3 C 13,4 C 18,1 km/h
05.04.2018 17:00 13,9 C 60 % 1011,9 hPa 0,0 l/m 1,8 km/h N 6,3 C 13,9 C 9,3 km/h
05.04.2018 18:00 14,5 C 59 % 1011,9 hPa 0,0 l/m 2,1 km/h N 6,5 C 14,5 C 7,6 km/h
05.04.2018 19:00 14,3 C 59 % 1012,2 hPa 0,0 l/m 0,6 km/h N 6,4 C 14,3 C 4,0 km/h
05.04.2018 20:00 12,9 C 61 % 1013,0 hPa 0,0 l/m 3,0 km/h N 5,5 C 12,9 C 10,1 km/h
05.04.2018 21:00 12,4 C 62 % 1013,9 hPa 0,0 l/m 2,3 km/h N 5,4 C 12,2 C 9,6 km/h
05.04.2018 22:00 12,3 C 65 % 1015,0 hPa 0,0 l/m 10,4 km/h N 5,8 C 10,0 C 25,3 km/h
05.04.2018 23:00 11,3 C 65 % 1016,2 hPa 0,0 l/m 10,1 km/h N 5,0 C 9,0 C 24,5 km/h
06.04.2018 00:00 10,5 C 74 % 1017,1 hPa 0,0 l/m 7,9 km/h N 6,1 C 9,3 C 20,1 km/h
06.04.2018 01:00 9,8 C 75 % 1017,8 hPa 0,0 l/m 6,3 km/h N 5,5 C 9,2 C 17,7 km/h
06.04.2018 02:00 9,4 C 74 % 1018,4 hPa 0,0 l/m 8,4 km/h N 5,0 C 7,9 C 22,5 km/h
06.04.2018 03:00 8,9 C 74 % 1018,9 hPa 0,0 l/m 8,1 km/h N 4,5 C 7,7 C 22,5 km/h
06.04.2018 04:00 8,6 C 72 % 1019,6 hPa 0,0 l/m 9,4 km/h N 3,7 C 6,4 C 25,3 km/h
06.04.2018 05:00 8,0 C 70 % 1020,3 hPa 0,0 l/m 9,0 km/h N 2,8 C 6,1 C 24,5 km/h
06.04.2018 06:00 7,3 C 69 % 1020,8 hPa 0,0 l/m 3,6 km/h N 2,1 C 7,3 C 13,7 km/h
06.04.2018 07:00 7,2 C 72 % 1021,7 hPa 0,0 l/m 2,2 km/h N 2,4 C 7,2 C 10,9 km/h
06.04.2018 08:00 8,1 C 69 % 1022,5 hPa 0,0 l/m 7,0 km/h N 2,8 C 7,5 C 19,7 km/h
06.04.2018 09:00 8,3 C 67 % 1023,1 hPa 0,0 l/m 10,4 km/h N 2,6 C 5,5 C 24,9 km/h
06.04.2018 10:00 9,2 C 64 % 1023,5 hPa 0,0 l/m 9,9 km/h N 2,7 C 6,8 C 24,1 km/h
06.04.2018 11:00 9,6 C 62 % 1023,5 hPa 0,0 l/m 9,3 km/h N 2,6 C 7,5 C 24,1 km/h
06.04.2018 12:00 10,6 C 59 % 1023,5 hPa 0,0 l/m 9,8 km/h N 2,9 C 8,4 C 25,0 km/h
06.04.2018 13:00 10,9 C 57 % 1023,5 hPa 0,0 l/m 10,1 km/h N 2,7 C 8,5 C 24,5 km/h
06.04.2018 14:00 11,7 C 56 % 1023,0 hPa 0,0 l/m 9,0 km/h N 3,1 C 10,0 C 22,1 km/h
06.04.2018 15:00 12,4 C 53 % 1022,3 hPa 0,0 l/m 7,1 km/h N 3,0 C 11,9 C 19,3 km/h
06.04.2018 16:00 12,6 C 51 % 1021,8 hPa 0,0 l/m 6,2 km/h N 2,8 C 12,6 C 19,3 km/h
06.04.2018 17:00 12,9 C 51 % 1021,8 hPa 0,0 l/m 3,7 km/h N 2,8 C 12,9 C 12,1 km/h
06.04.2018 18:00 12,5 C 51 % 1021,7 hPa 0,0 l/m 1,5 km/h N 2,6 C 12,5 C 10,9 km/h
06.04.2018 19:00 11,4 C 54 % 1022,0 hPa 0,0 l/m 0,4 km/h N 2,3 C 11,4 C 6,8 km/h
06.04.2018 20:00 9,2 C 58 % 1022,8 hPa 0,0 l/m 0,0 km/h N 1,4 C 9,2 C 0,0 km/h
06.04.2018 21:00 6,9 C 64 % 1023,2 hPa 0,0 l/m 0,0 km/h N 0,5 C 6,9 C 0,0 km/h
06.04.2018 22:00 5,1 C 72 % 1023,2 hPa 0,0 l/m 0,0 km/h N 0,4 C 5,1 C 0,0 km/h
06.04.2018 23:00 4,5 C 75 % 1023,0 hPa 0,0 l/m 0,0 km/h N 0,4 C 4,5 C 0,0 km/h
07.04.2018 00:00 4,0 C 76 % 1022,9 hPa 0,0 l/m 0,0 km/h N 0,0 C 4,0 C 0,4 km/h
07.04.2018 01:00 2,7 C 77 % 1023,0 hPa 0,0 l/m 0,0 km/h N -1,0 C 2,7 C 0,0 km/h
07.04.2018 02:00 1,6 C 79 % 1022,9 hPa 0,0 l/m 0,0 km/h N -1,5 C 1,6 C 0,0 km/h
07.04.2018 03:00 1,4 C 81 % 1022,6 hPa 0,0 l/m 0,0 km/h N -1,6 C 1,4 C 0,0 km/h
07.04.2018 04:00 1,2 C 80 % 1022,4 hPa 0,0 l/m 0,0 km/h N -1,8 C 1,2 C 0,0 km/h
07.04.2018 05:00 0,7 C 81 % 1022,2 hPa 0,0 l/m 0,0 km/h N -2,2 C 0,7 C 0,0 km/h
07.04.2018 06:00 0,1 C 81 % 1022,0 hPa 0,0 l/m 0,0 km/h N -2,7 C 0,1 C 0,0 km/h
07.04.2018 07:00 0,9 C 83 % 1022,0 hPa 0,0 l/m 0,0 km/h N -1,7 C 0,9 C 0,0 km/h
07.04.2018 08:00 3,0 C 83 % 1021,8 hPa 0,0 l/m 0,0 km/h N 0,4 C 3,0 C 0,4 km/h
07.04.2018 09:00 7,6 C 76 % 1021,8 hPa 0,0 l/m 0,0 km/h N 3,5 C 7,6 C 2,0 km/h
07.04.2018 10:00 12,5 C 58 % 1021,5 hPa 0,0 l/m 0,8 km/h N 4,4 C 12,5 C 8,9 km/h
07.04.2018 11:00 15,8 C 50 % 1021,0 hPa 0,0 l/m 0,5 km/h N 5,5 C 15,8 C 7,2 km/h
07.04.2018 12:00 16,8 C 49 % 1020,5 hPa 0,0 l/m 1,1 km/h N 6,1 C 16,8 C 8,0 km/h
07.04.2018 13:00 17,8 C 47 % 1020,0 hPa 0,0 l/m 1,9 km/h N 6,4 C 17,8 C 10,9 km/h
07.04.2018 14:00 17,8 C 48 % 1019,7 hPa 0,0 l/m 2,5 km/h N 6,7 C 17,8 C 15,7 km/h
07.04.2018 15:00 17,6 C 48 % 1019,4 hPa 0,0 l/m 2,9 km/h N 6,4 C 17,6 C 14,9 km/h
07.04.2018 16:00 16,1 C 52 % 1019,2 hPa 0,0 l/m 1,9 km/h N 6,2 C 16,1 C 13,7 km/h
07.04.2018 17:00 14,4 C 56 % 1019,5 hPa 0,0 l/m 1,4 km/h N 5,8 C 14,4 C 8,4 km/h
07.04.2018 18:00 13,1 C 63 % 1019,8 hPa 0,0 l/m 1,5 km/h N 6,2 C 13,1 C 8,0 km/h
07.04.2018 19:00 12,0 C 66 % 1019,7 hPa 0,0 l/m 1,4 km/h N 5,9 C 12,0 C 6,4 km/h
07.04.2018 20:00 11,0 C 67 % 1019,9 hPa 0,0 l/m 0,7 km/h N 5,1 C 11,0 C 6,0 km/h
07.04.2018 21:00 10,2 C 73 % 1019,9 hPa 0,0 l/m 0,2 km/h N 5,5 C 10,2 C 4,0 km/h
07.04.2018 22:00 9,1 C 78 % 1019,6 hPa 0,0 l/m 0,3 km/h N 5,4 C 9,1 C 4,4 km/h
07.04.2018 23:00 8,1 C 80 % 1019,2 hPa 0,0 l/m 0,4 km/h N 4,9 C 8,1 C 2,8 km/h
08.04.2018 00:00 7,8 C 81 % 1018,7 hPa 0,0 l/m 0,3 km/h N 4,7 C 7,8 C 3,6 km/h
08.04.2018 01:00 7,6 C 82 % 1018,3 hPa 0,0 l/m 0,8 km/h N 4,7 C 7,6 C 4,4 km/h
08.04.2018 02:00 7,9 C 82 % 1017,7 hPa 0,0 l/m 0,3 km/h N 5,0 C 7,9 C 4,0 km/h
08.04.2018 03:00 8,2 C 82 % 1017,0 hPa 0,0 l/m 0,3 km/h N 5,3 C 8,2 C 5,6 km/h
08.04.2018 04:00 8,1 C 83 % 1016,4 hPa 0,0 l/m 0,9 km/h N 5,3 C 8,1 C 6,0 km/h
08.04.2018 05:00 8,4 C 83 % 1015,4 hPa 0,0 l/m 0,7 km/h N 5,7 C 8,4 C 5,2 km/h
08.04.2018 06:00 8,1 C 83 % 1014,8 hPa 0,0 l/m 2,7 km/h N 5,3 C 8,1 C 12,5 km/h
08.04.2018 07:00 8,4 C 83 % 1014,2 hPa 0,0 l/m 3,4 km/h N 5,7 C 8,4 C 11,3 km/h
08.04.2018 08:00 10,1 C 82 % 1013,8 hPa 0,0 l/m 5,0 km/h N 7,1 C 10,1 C 19,7 km/h
08.04.2018 09:00 12,4 C 76 % 1013,3 hPa 0,0 l/m 6,1 km/h N 8,3 C 12,3 C 20,5 km/h
08.04.2018 10:00 14,2 C 70 % 1012,8 hPa 0,0 l/m 6,3 km/h N 8,7 C 14,2 C 22,5 km/h
08.04.2018 11:00 16,0 C 64 % 1012,6 hPa 0,0 l/m 4,7 km/h N 9,2 C 16,0 C 17,7 km/h
08.04.2018 12:00 17,3 C 57 % 1011,9 hPa 0,0 l/m 5,6 km/h N 8,6 C 17,2 C 19,7 km/h
08.04.2018 13:00 18,5 C 52 % 1011,5 hPa 0,0 l/m 4,1 km/h N 8,3 C 18,5 C 15,7 km/h
08.04.2018 14:00 18,8 C 49 % 1011,0 hPa 0,0 l/m 5,7 km/h N 7,7 C 18,8 C 22,5 km/h
08.04.2018 15:00 19,4 C 45 % 1010,3 hPa 0,0 l/m 5,9 km/h N 7,1 C 19,3 C 22,1 km/h
08.04.2018 16:00 19,9 C 46 % 1010,0 hPa 0,0 l/m 4,6 km/h N 8,0 C 19,9 C 16,1 km/h
08.04.2018 17:00 20,0 C 46 % 1009,5 hPa 0,0 l/m 4,9 km/h N 8,1 C 20,0 C 18,5 km/h
08.04.2018 18:00 19,5 C 47 % 1009,3 hPa 0,0 l/m 4,2 km/h N 7,9 C 19,5 C 14,9 km/h
08.04.2018 19:00 18,6 C 47 % 1009,3 hPa 0,0 l/m 2,6 km/h N 7,0 C 18,6 C 10,9 km/h
08.04.2018 20:00 17,3 C 51 % 1009,6 hPa 0,0 l/m 0,8 km/h N 7,1 C 17,3 C 7,2 km/h
08.04.2018 21:00 16,0 C 57 % 1009,5 hPa 0,0 l/m 1,4 km/h N 7,5 C 16,0 C 11,3 km/h
08.04.2018 22:00 15,1 C 58 % 1009,5 hPa 0,0 l/m 0,4 km/h N 6,9 C 15,1 C 5,6 km/h
08.04.2018 23:00 14,4 C 59 % 1009,3 hPa 0,0 l/m 0,1 km/h N 6,4 C 14,4 C 2,0 km/h
Min-Datum _ 07.04.18 02.04.18 04.04.18 - 02.04.18 - 07.04.18 02.04.18 02.04.18
_ Min-Zeit 06:15 16:15 19:15 - 17:45 - 06:15 04:15 19:15
Minimum _ 0,0 C 39 % 1003,7 hPa - 0,0 km/h - -2,9 C -0,1 C 0,0 km/h
Max-Datum _ 08.04.18 03.04.18 06.04.18 02.04.18 02.04.18 - 04.04.18 08.04.18 02.04.18
_ Max-Zeit 17:00 07:45 10:30 04:00 00:15 - 17:15 17:00 00:00
Maximum _ 20,1 C 84 % 1023,7 hPa 1,8 l/m 16,3 km/h
N
- 10,2 C 20,1 C 43,5 km/h
N
Durchschnitt _ 11,1 C 65 % 1013,3 hPa #2,9 l/m 3,0 km/h N 4,5 C 10,7 C 10,3 km/h